createdAt,value
2022-09-02T00:02:25.283Z,60.20
2022-09-02T00:04:53.168Z,60.70
2022-09-02T00:07:20.645Z,60.80
2022-09-02T00:09:47.882Z,60.80
2022-09-02T00:12:16.448Z,61.10
2022-09-02T00:14:44.004Z,61.20
2022-09-02T00:17:11.218Z,61.40
2022-09-02T00:19:38.783Z,61.50
2022-09-02T00:22:06.099Z,61.20
2022-09-02T00:24:33.842Z,61.40
2022-09-02T00:27:01.203Z,61.50
2022-09-02T00:29:29.284Z,61.40
2022-09-02T00:31:57.141Z,61.40
2022-09-02T00:34:25.279Z,61.60
2022-09-02T00:36:52.930Z,62.00
2022-09-02T00:39:20.869Z,61.90
2022-09-02T00:41:48.211Z,61.90
2022-09-02T00:44:18.285Z,62.10
2022-09-02T00:46:46.578Z,62.10
2022-09-02T00:49:24.884Z,61.70
2022-09-02T00:51:59.331Z,62.10
2022-09-02T00:54:29.608Z,62.20
2022-09-02T00:56:57.403Z,62.10
2022-09-02T00:59:39.578Z,62.10
2022-09-02T01:02:08.141Z,62.70
2022-09-02T01:04:36.298Z,62.20
2022-09-02T01:07:04.442Z,62.10
2022-09-02T01:09:33.384Z,62.00
2022-09-02T01:12:03.053Z,62.50
2022-09-02T01:14:30.984Z,62.30
2022-09-02T01:17:01.023Z,62.40
2022-09-02T01:19:32.317Z,62.60
2022-09-02T01:21:59.695Z,62.60
2022-09-02T01:24:30.895Z,62.40
2022-09-02T01:27:00.303Z,62.40
2022-09-02T01:29:28.624Z,62.20
2022-09-02T01:31:56.387Z,62.20
2022-09-02T01:34:24.330Z,62.30
2022-09-02T01:36:53.257Z,62.30
2022-09-02T01:39:20.686Z,62.50
2022-09-02T01:41:48.363Z,62.90
2022-09-02T01:44:17.737Z,62.80
2022-09-02T01:46:46.896Z,63.10
2022-09-02T01:49:14.579Z,62.80
2022-09-02T01:51:42.474Z,63.00
2022-09-02T01:54:10.028Z,63.10
2022-09-02T01:56:38.420Z,63.60
2022-09-02T01:59:07.918Z,63.30
2022-09-02T02:01:35.988Z,63.30
2022-09-02T02:04:04.522Z,63.30
2022-09-02T02:06:32.806Z,63.40
2022-09-02T02:09:00.718Z,63.50
2022-09-02T02:11:28.772Z,63.60
2022-09-02T02:14:00.551Z,63.50
2022-09-02T02:16:28.575Z,63.60
2022-09-02T02:18:56.114Z,63.60
2022-09-02T02:21:23.490Z,63.40
2022-09-02T02:23:52.388Z,64.00
2022-09-02T02:26:20.482Z,64.20
2022-09-02T02:28:49.427Z,64.30
2022-09-02T02:31:16.911Z,64.10
2022-09-02T02:33:44.499Z,63.90
2022-09-02T02:36:12.635Z,64.30
2022-09-02T02:38:41.267Z,64.50
2022-09-02T02:41:10.231Z,64.60
2022-09-02T02:43:38.134Z,64.50
2022-09-02T02:46:07.141Z,64.70
2022-09-02T02:48:36.573Z,64.40
2022-09-02T02:51:05.386Z,64.80
2022-09-02T02:53:36.343Z,65.00
2022-09-02T02:56:05.423Z,64.90
2022-09-02T02:58:32.928Z,64.90
2022-09-02T03:01:00.950Z,64.90
2022-09-02T03:03:30.038Z,64.70
2022-09-02T03:05:58.761Z,65.20
2022-09-02T03:08:27.949Z,65.20
2022-09-02T03:10:56.418Z,65.60
2022-09-02T03:13:29.594Z,65.30
2022-09-02T03:16:01.046Z,65.20
2022-09-02T03:18:28.667Z,65.30
2022-09-02T03:20:57.158Z,65.40
2022-09-02T03:23:25.097Z,65.40
2022-09-02T03:25:52.625Z,65.60
2022-09-02T03:28:36.348Z,65.80
2022-09-02T03:31:06.049Z,66.00
2022-09-02T03:33:34.026Z,65.50
2022-09-02T03:36:01.611Z,65.60
2022-09-02T03:38:29.359Z,65.70
2022-09-02T03:40:56.673Z,65.70
2022-09-02T03:43:25.007Z,65.80
2022-09-02T03:45:52.676Z,65.80
2022-09-02T03:48:23.152Z,65.90
2022-09-02T03:50:50.779Z,66.20
2022-09-02T03:53:20.504Z,66.20
2022-09-02T03:55:55.027Z,65.90
2022-09-02T03:58:25.357Z,66.20
2022-09-02T04:00:55.098Z,66.10
2022-09-02T04:03:24.790Z,65.60
2022-09-02T04:05:52.737Z,66.40
2022-09-02T04:08:23.628Z,66.50
2022-09-02T04:10:52.652Z,66.50
2022-09-02T04:13:20.245Z,66.70
2022-09-02T04:15:49.294Z,66.40
2022-09-02T04:18:57.235Z,66.10
2022-09-02T04:21:45.744Z,66.40
2022-09-02T04:24:13.615Z,66.60
2022-09-02T04:26:45.515Z,66.70
2022-09-02T04:29:16.519Z,66.80
2022-09-02T04:31:44.894Z,67.00
2022-09-02T04:34:12.419Z,66.90
2022-09-02T04:36:41.628Z,66.90
2022-09-02T04:39:12.646Z,66.90
2022-09-02T04:41:40.299Z,66.90
2022-09-02T04:44:10.195Z,66.90
2022-09-02T04:46:41.441Z,66.90
2022-09-02T04:49:13.771Z,66.80
2022-09-02T04:51:43.624Z,66.90
2022-09-02T04:54:19.175Z,67.00
2022-09-02T04:56:49.843Z,66.90
2022-09-02T04:59:20.459Z,67.30
2022-09-02T05:01:59.426Z,67.60
2022-09-02T05:04:31.167Z,68.00
2022-09-02T05:07:01.509Z,69.00
2022-09-02T05:09:31.537Z,68.80
2022-09-02T05:12:04.700Z,69.10
2022-09-02T05:14:40.028Z,69.10
2022-09-02T05:17:09.551Z,68.80
2022-09-02T05:19:40.322Z,67.80
2022-09-02T05:22:10.344Z,66.70
2022-09-02T05:24:42.716Z,65.20
2022-09-02T05:27:16.036Z,63.60
2022-09-02T05:29:45.487Z,61.80
2022-09-02T05:32:14.664Z,60.50
2022-09-02T05:34:43.564Z,59.00
2022-09-02T05:37:12.429Z,57.80
2022-09-02T05:39:39.968Z,56.40
2022-09-02T05:42:08.845Z,55.20
2022-09-02T05:44:36.868Z,54.20
2022-09-02T05:47:05.832Z,52.50
2022-09-02T05:49:33.793Z,51.90
2022-09-02T05:52:10.080Z,51.40
2022-09-02T05:54:41.719Z,50.90
2022-09-02T05:57:16.464Z,50.20
2022-09-02T06:00:07.583Z,49.30
2022-09-02T06:02:46.531Z,48.70
2022-09-02T06:05:21.821Z,48.60
2022-09-02T06:07:56.991Z,47.40
2022-09-02T06:10:25.070Z,46.60
2022-09-02T06:12:53.425Z,44.80
2022-09-02T06:15:23.712Z,43.70
2022-09-02T06:17:51.188Z,43.50
2022-09-02T06:20:18.956Z,43.20
2022-09-02T06:22:49.275Z,42.90
2022-09-02T06:25:20.884Z,42.80
2022-09-02T06:27:48.995Z,42.10
2022-09-02T06:30:16.615Z,42.20
2022-09-02T06:32:44.343Z,42.10
2022-09-02T06:35:18.572Z,41.60
2022-09-02T06:37:46.332Z,40.70
2022-09-02T06:40:14.623Z,40.50
2022-09-02T06:42:42.549Z,40.00
2022-09-02T06:45:27.216Z,38.90
2022-09-02T06:47:58.221Z,39.50
2022-09-02T06:50:26.719Z,39.50
2022-09-02T06:52:56.523Z,39.10
2022-09-02T06:55:24.609Z,38.50
2022-09-02T06:57:54.029Z,38.10
2022-09-02T07:00:21.916Z,37.50
2022-09-02T07:03:09.315Z,36.80
2022-09-02T07:05:37.695Z,36.70
2022-09-02T07:08:06.151Z,36.20
2022-09-02T07:10:40.871Z,35.50
2022-09-02T07:13:10.279Z,34.90
2022-09-02T07:15:40.783Z,34.00
2022-09-02T07:18:09.756Z,33.20
2022-09-02T07:20:38.070Z,33.50
2022-09-02T07:23:05.816Z,33.10
2022-09-02T07:25:38.243Z,32.00
2022-09-02T07:28:09.759Z,31.50
2022-09-02T07:30:40.190Z,30.60
2022-09-02T07:33:13.878Z,30.30
2022-09-02T07:35:43.813Z,30.80
2022-09-02T07:38:12.243Z,30.30
2022-09-02T07:40:41.197Z,30.00
2022-09-02T07:43:10.964Z,30.30
2022-09-02T07:45:39.335Z,30.40
2022-09-02T07:48:07.716Z,31.00
2022-09-02T07:50:37.431Z,31.70
2022-09-02T07:53:07.165Z,31.50
2022-09-02T07:55:36.980Z,31.80
2022-09-02T07:58:06.271Z,31.10
2022-09-02T08:00:36.103Z,30.50
2022-09-02T08:03:09.945Z,30.70
2022-09-02T08:05:42.308Z,30.40
2022-09-02T08:08:09.843Z,31.10
2022-09-02T08:10:38.022Z,30.30
2022-09-02T08:13:06.981Z,29.90
2022-09-02T08:15:35.953Z,30.00
2022-09-02T08:18:05.084Z,31.10
2022-09-02T08:20:33.169Z,30.60
2022-09-02T08:23:11.141Z,31.30
2022-09-02T08:25:40.952Z,30.90
2022-09-02T08:28:09.550Z,30.00
2022-09-02T08:30:36.995Z,30.00
2022-09-02T08:33:04.500Z,30.00
2022-09-02T08:35:31.921Z,30.00
2022-09-02T08:38:00.376Z,30.50
2022-09-02T08:40:41.897Z,31.00
2022-09-02T08:43:30.211Z,30.50
2022-09-02T08:46:05.137Z,30.50
2022-09-02T08:48:36.317Z,30.00
2022-09-02T08:51:10.057Z,30.00
2022-09-02T08:53:51.188Z,30.00
2022-09-02T08:56:19.130Z,30.20
2022-09-02T08:58:53.324Z,30.10
2022-09-02T09:01:41.535Z,29.10
2022-09-02T09:04:24.003Z,29.10
2022-09-02T09:07:17.996Z,29.10
2022-09-02T09:10:10.277Z,29.00
2022-09-02T09:12:47.724Z,29.40
2022-09-02T09:15:20.993Z,29.30
2022-09-02T09:17:59.888Z,28.40
2022-09-02T09:20:31.516Z,28.60
2022-09-02T09:23:00.847Z,28.60
2022-09-02T09:25:32.569Z,28.50
2022-09-02T09:28:01.089Z,28.60
2022-09-02T09:30:29.498Z,28.20
2022-09-02T09:33:01.255Z,28.40
2022-09-02T09:35:51.628Z,28.10
2022-09-02T09:38:30.336Z,28.60
2022-09-02T09:41:20.517Z,28.40
2022-09-02T09:43:48.003Z,28.90
2022-09-02T09:46:34.168Z,28.30
2022-09-02T09:49:01.537Z,27.60
2022-09-02T09:51:29.135Z,28.00
2022-09-02T09:54:15.857Z,28.40
2022-09-02T09:56:43.523Z,28.30
2022-09-02T09:59:42.345Z,28.50
2022-09-02T10:02:25.166Z,28.90
2022-09-02T10:04:54.307Z,29.40
2022-09-02T10:07:39.740Z,29.50
2022-09-02T10:10:21.848Z,29.60
2022-09-02T10:12:52.311Z,30.00
2022-09-02T10:15:44.609Z,30.30
2022-09-02T10:18:27.108Z,31.10
2022-09-02T10:21:15.626Z,31.30
2022-09-02T10:24:04.691Z,31.70
2022-09-02T10:26:46.924Z,32.20
2022-09-02T10:29:29.312Z,32.20
2022-09-02T10:32:15.423Z,33.10
2022-09-02T10:35:11.274Z,33.40
2022-09-02T10:37:57.756Z,33.70
2022-09-02T10:40:37.389Z,33.50
2022-09-02T10:43:07.097Z,33.80
2022-09-02T10:45:46.648Z,33.70
2022-09-02T10:48:39.390Z,33.70
2022-09-02T10:51:16.456Z,33.60
2022-09-02T10:54:11.722Z,33.80
2022-09-02T10:57:01.689Z,33.40
2022-09-02T10:59:49.243Z,33.40
2022-09-02T11:02:22.307Z,33.60
2022-09-02T11:04:56.462Z,33.70
2022-09-02T11:07:30.253Z,34.10
2022-09-02T11:10:06.781Z,33.60
2022-09-02T11:12:40.496Z,33.80
2022-09-02T11:15:11.172Z,32.90
2022-09-02T11:18:07.998Z,33.30
2022-09-02T11:21:09.220Z,33.20
2022-09-02T11:23:46.525Z,33.30
2022-09-02T11:26:38.168Z,32.80
2022-09-02T11:29:13.990Z,33.30
2022-09-02T11:32:00.879Z,33.90
2022-09-02T11:34:34.964Z,34.60
2022-09-02T11:37:10.689Z,34.10
2022-09-02T11:39:54.397Z,33.60
2022-09-02T11:42:37.335Z,33.80
2022-09-02T11:45:10.290Z,34.20
2022-09-02T11:47:50.815Z,34.20
2022-09-02T11:50:24.338Z,33.80
2022-09-02T11:53:01.492Z,34.20
2022-09-02T11:55:34.311Z,34.30
2022-09-02T11:58:02.583Z,33.70
2022-09-02T12:00:36.722Z,33.50
2022-09-02T12:03:12.028Z,33.60
2022-09-02T12:06:05.225Z,34.10
2022-09-02T12:08:34.909Z,33.50
2022-09-02T12:11:05.994Z,33.40
2022-09-02T12:13:45.714Z,33.20
2022-09-02T12:16:21.354Z,32.90
2022-09-02T12:18:54.590Z,32.70
2022-09-02T12:21:23.649Z,32.50
2022-09-02T12:23:53.264Z,32.50
2022-09-02T12:26:40.467Z,32.50
2022-09-02T12:29:30.339Z,32.60
2022-09-02T12:31:58.318Z,32.70
2022-09-02T12:34:28.624Z,32.60
2022-09-02T12:37:01.060Z,32.30
2022-09-02T12:39:29.367Z,32.70
2022-09-02T12:41:57.447Z,32.70
2022-09-02T12:45:11.831Z,32.90
2022-09-02T12:48:16.325Z,33.10
2022-09-02T12:50:44.029Z,33.00
2022-09-02T12:53:23.762Z,32.60
2022-09-02T12:55:58.698Z,32.70
2022-09-02T12:58:31.827Z,33.20
2022-09-02T13:01:47.852Z,32.80
2022-09-02T13:04:30.609Z,33.20
2022-09-02T13:07:28.908Z,32.50
2022-09-02T13:10:15.155Z,32.40
2022-09-02T13:13:20.871Z,32.70
2022-09-02T13:16:22.439Z,32.80
2022-09-02T13:19:23.527Z,33.20
2022-09-02T13:22:18.165Z,33.50
2022-09-02T13:25:10.034Z,33.20
2022-09-02T13:27:55.912Z,33.80
2022-09-02T13:31:00.249Z,33.80
2022-09-02T13:33:28.006Z,34.10
2022-09-02T13:35:59.004Z,33.40
2022-09-02T13:38:29.344Z,33.30
2022-09-02T13:40:57.101Z,33.50
2022-09-02T13:43:26.954Z,33.20
2022-09-02T13:46:02.194Z,33.60
2022-09-02T13:48:32.747Z,33.90
2022-09-02T13:51:13.753Z,34.10
2022-09-02T13:54:18.880Z,33.70
2022-09-02T13:56:36.547Z,33.70
2022-09-02T13:59:03.850Z,33.30
2022-09-02T14:01:34.578Z,33.50
2022-09-02T14:06:40.876Z,33.10
2022-09-02T14:09:19.313Z,33.40
2022-09-02T14:11:48.320Z,33.60
2022-09-02T14:14:18.685Z,33.40
2022-09-02T14:16:46.034Z,33.50
2022-09-02T14:19:16.884Z,33.40
2022-09-02T14:21:56.670Z,33.20
2022-09-02T14:24:29.112Z,32.70
2022-09-02T14:26:58.355Z,32.90
2022-09-02T14:29:28.508Z,33.00
2022-09-02T14:32:22.069Z,32.90
2022-09-02T14:35:08.734Z,33.00
2022-09-02T14:37:59.112Z,33.10
2022-09-02T14:40:36.123Z,33.00
2022-09-02T14:43:04.607Z,33.40
2022-09-02T14:45:34.546Z,33.80
2022-09-02T14:48:10.971Z,33.40
2022-09-02T14:50:39.762Z,33.30
2022-09-02T14:53:09.258Z,33.40
2022-09-02T14:55:52.613Z,33.20
2022-09-02T14:58:24.678Z,33.40
2022-09-02T15:01:00.189Z,33.50
2022-09-02T15:03:29.770Z,33.00
2022-09-02T15:05:57.402Z,33.20
2022-09-02T15:08:25.044Z,32.70
2022-09-02T15:10:54.652Z,32.70
2022-09-02T15:13:25.418Z,33.10
2022-09-02T15:15:55.279Z,32.50
2022-09-02T15:18:24.076Z,32.50
2022-09-02T15:20:52.453Z,32.20
2022-09-02T15:23:19.994Z,32.60
2022-09-02T15:25:47.912Z,32.80
2022-09-02T15:28:15.529Z,32.90
2022-09-02T15:30:43.193Z,33.20
2022-09-02T15:33:16.565Z,33.40
2022-09-02T15:35:47.355Z,33.60
2022-09-02T15:38:15.125Z,33.40
2022-09-02T15:40:45.186Z,33.50
2022-09-02T15:43:13.902Z,33.40
2022-09-02T15:45:47.300Z,33.50
2022-09-02T15:48:15.103Z,33.50
2022-09-02T15:50:42.899Z,33.70
2022-09-02T15:53:15.831Z,33.80
2022-09-02T15:55:43.726Z,33.80
2022-09-02T15:58:12.075Z,33.70
2022-09-02T16:00:41.599Z,34.00
2022-09-02T16:03:11.781Z,33.70
2022-09-02T16:05:39.495Z,33.90
2022-09-02T16:08:07.128Z,33.80
2022-09-02T16:10:36.748Z,33.60
2022-09-02T16:13:04.902Z,33.80
2022-09-02T16:15:34.457Z,34.20
2022-09-02T16:18:02.124Z,34.40
2022-09-02T16:20:29.838Z,34.50
2022-09-02T16:22:57.495Z,34.20
2022-09-02T16:25:25.206Z,34.40
2022-09-02T16:27:52.731Z,34.60
2022-09-02T16:30:20.681Z,34.70
2022-09-02T16:32:50.635Z,35.00
2022-09-02T16:35:18.129Z,35.00
2022-09-02T16:37:45.784Z,34.90
2022-09-02T16:40:21.087Z,35.10
2022-09-02T16:42:49.415Z,35.30
2022-09-02T16:45:17.163Z,35.40
2022-09-02T16:47:44.723Z,35.60
2022-09-02T16:50:12.625Z,35.60
2022-09-02T16:52:41.064Z,35.70
2022-09-02T16:55:08.749Z,35.80
2022-09-02T16:57:36.271Z,36.00
2022-09-02T17:00:05.371Z,36.10
2022-09-02T17:02:32.990Z,36.30
2022-09-02T17:05:00.396Z,36.40
2022-09-02T17:07:27.898Z,36.40
2022-09-02T17:09:55.368Z,36.50
2022-09-02T17:12:22.809Z,36.50
2022-09-02T17:14:50.468Z,36.60
2022-09-02T17:17:19.087Z,36.70
2022-09-02T17:19:46.307Z,36.70
2022-09-02T17:22:13.704Z,36.90
2022-09-02T17:24:41.950Z,36.90
2022-09-02T17:27:09.380Z,37.20
2022-09-02T17:29:51.930Z,37.20
2022-09-02T17:32:20.349Z,37.30
2022-09-02T17:34:49.435Z,37.50
2022-09-02T17:37:17.137Z,37.50
2022-09-02T17:39:46.152Z,37.50
2022-09-02T17:42:14.974Z,37.70
2022-09-02T17:44:42.889Z,37.70
2022-09-02T17:47:21.830Z,37.90
2022-09-02T17:49:49.912Z,38.10
2022-09-02T17:52:23.235Z,37.90
2022-09-02T17:54:52.719Z,38.00
2022-09-02T17:57:42.462Z,38.30
2022-09-02T18:00:16.797Z,38.40
2022-09-02T18:03:10.873Z,38.50
2022-09-02T18:05:53.508Z,38.50
2022-09-02T18:08:27.248Z,38.70
2022-09-02T18:10:58.448Z,38.70
2022-09-02T18:13:41.387Z,38.90
2022-09-02T18:16:32.988Z,39.10
2022-09-02T18:19:37.511Z,39.40
2022-09-02T18:22:19.375Z,39.40
2022-09-02T18:24:58.751Z,39.50
2022-09-02T18:27:52.401Z,39.80
2022-09-02T18:30:24.596Z,39.80
2022-09-02T18:33:04.321Z,40.00
2022-09-02T18:35:40.895Z,40.10
2022-09-02T18:38:42.144Z,40.10
2022-09-02T18:41:13.454Z,40.00
2022-09-02T18:44:21.827Z,40.20
2022-09-02T18:46:54.108Z,40.60
2022-09-02T18:49:24.191Z,40.70
2022-09-02T18:51:56.927Z,40.70
2022-09-02T18:54:51.672Z,41.40
2022-09-02T18:57:19.361Z,41.60
2022-09-02T19:00:07.520Z,41.80
2022-09-02T19:02:49.306Z,42.10
2022-09-02T19:05:20.606Z,42.40
2022-09-02T19:08:18.986Z,42.40
2022-09-02T19:10:46.561Z,42.80
2022-09-02T19:13:15.093Z,42.50
2022-09-02T19:15:43.096Z,42.40
2022-09-02T19:18:11.878Z,42.50
2022-09-02T19:20:39.551Z,42.60
2022-09-02T19:23:11.369Z,42.60
2022-09-02T19:25:44.017Z,42.80
2022-09-02T19:28:13.982Z,43.80
2022-09-02T19:30:41.592Z,43.30
2022-09-02T19:33:11.051Z,43.30
2022-09-02T19:35:45.222Z,43.10
2022-09-02T19:38:16.067Z,43.40
2022-09-02T19:40:45.387Z,43.20
2022-09-02T19:43:16.072Z,43.40
2022-09-02T19:45:43.822Z,43.40
2022-09-02T19:48:11.665Z,43.60
2022-09-02T19:50:42.083Z,43.60
2022-09-02T19:53:19.982Z,43.60
2022-09-02T19:55:47.464Z,43.50
2022-09-02T19:58:14.885Z,43.70
2022-09-02T20:00:43.349Z,43.70
2022-09-02T20:03:11.478Z,43.80
2022-09-02T20:05:40.865Z,43.90
2022-09-02T20:08:10.092Z,44.20
2022-09-02T20:10:38.886Z,44.70
2022-09-02T20:13:06.894Z,45.00
2022-09-02T20:15:37.710Z,45.00
2022-09-02T20:18:11.695Z,45.30
2022-09-02T20:20:46.313Z,45.70
2022-09-02T20:23:17.532Z,46.00
2022-09-02T20:26:16.306Z,46.20
2022-09-02T20:29:19.152Z,46.80
2022-09-02T20:32:13.641Z,47.10
2022-09-02T20:34:44.075Z,47.30
2022-09-02T20:38:05.769Z,47.40
2022-09-02T20:40:48.859Z,47.40
2022-09-02T20:43:53.560Z,48.10
2022-09-02T20:46:37.446Z,48.20
2022-09-02T20:49:37.591Z,48.40
2022-09-02T20:52:13.576Z,48.70
2022-09-02T20:55:05.544Z,48.80
2022-09-02T20:57:41.734Z,49.00
2022-09-02T21:00:16.432Z,48.70
2022-09-02T21:03:01.456Z,49.20
2022-09-02T21:05:35.240Z,49.20
2022-09-02T21:08:10.171Z,49.20
2022-09-02T21:10:52.111Z,49.60
2022-09-02T21:13:33.935Z,49.60
2022-09-02T21:16:09.145Z,49.70
2022-09-02T21:19:13.968Z,49.90
2022-09-02T21:21:55.803Z,50.00
2022-09-02T21:24:35.799Z,50.30
2022-09-02T21:27:27.559Z,50.20
2022-09-02T21:30:08.468Z,50.30
2022-09-02T21:32:38.810Z,50.60
2022-09-02T21:35:21.267Z,50.50
2022-09-02T21:37:54.636Z,50.60
2022-09-02T21:40:30.428Z,51.00
2022-09-02T21:43:15.918Z,51.90
2022-09-02T21:46:01.340Z,52.20
2022-09-02T21:48:33.753Z,52.10
2022-09-02T21:51:08.606Z,52.00
2022-09-02T21:53:47.986Z,52.10
2022-09-02T21:56:38.694Z,52.30
2022-09-02T21:59:14.392Z,51.80
2022-09-02T22:01:49.926Z,51.50
2022-09-02T22:04:42.665Z,52.00
2022-09-02T22:07:28.466Z,52.00
2022-09-02T22:10:16.506Z,52.10
2022-09-02T22:12:51.909Z,52.00
2022-09-02T22:15:56.414Z,52.40
2022-09-02T22:18:49.070Z,52.70
2022-09-02T22:21:27.136Z,52.60
2022-09-02T22:23:55.324Z,52.60
2022-09-02T22:26:41.640Z,52.60
2022-09-02T22:29:21.107Z,52.90
2022-09-02T22:31:53.415Z,52.90
2022-09-02T22:34:23.546Z,52.50
2022-09-02T22:36:59.446Z,52.50
2022-09-02T22:39:33.820Z,52.60
2022-09-02T22:42:34.282Z,52.80
2022-09-02T22:45:49.058Z,52.80
2022-09-02T22:48:40.402Z,52.70
2022-09-02T22:51:36.380Z,53.20
2022-09-02T22:54:04.208Z,53.10
2022-09-02T22:56:47.164Z,53.20
2022-09-02T22:59:29.900Z,53.20
2022-09-02T23:02:16.139Z,53.60
2022-09-02T23:05:45.234Z,54.30
2022-09-02T23:08:15.184Z,54.60
2022-09-02T23:10:50.791Z,54.10
2022-09-02T23:13:23.429Z,54.40
2022-09-02T23:16:11.021Z,54.20
2022-09-02T23:18:52.044Z,54.30
2022-09-02T23:21:43.434Z,54.30
2022-09-02T23:24:48.538Z,54.50
2022-09-02T23:27:30.175Z,54.40
2022-09-02T23:29:58.054Z,54.40
2022-09-02T23:32:43.607Z,54.50
2022-09-02T23:35:53.620Z,54.90
2022-09-02T23:38:35.436Z,54.90
2022-09-02T23:41:08.752Z,54.50
2022-09-02T23:43:40.479Z,55.00
2022-09-02T23:46:35.341Z,55.30
2022-09-02T23:49:25.404Z,55.30
2022-09-02T23:52:15.116Z,55.20
2022-09-02T23:55:18.132Z,55.40
2022-09-02T23:58:11.226Z,55.10
